createdAt,value
2022-09-15T00:00:34.300Z,9.309136
2022-09-15T00:01:33.647Z,9.309118
2022-09-15T00:02:34.808Z,9.309121
2022-09-15T00:03:33.679Z,9.309093
2022-09-15T00:04:33.634Z,9.309103
2022-09-15T00:05:33.584Z,9.309103
2022-09-15T00:06:33.689Z,9.309110
2022-09-15T00:07:34.320Z,9.309191
2022-09-15T00:08:33.652Z,9.309217
2022-09-15T00:09:33.627Z,9.309201
2022-09-15T00:10:33.524Z,9.309136
2022-09-15T00:11:33.517Z,9.309094
2022-09-15T00:12:33.396Z,9.309160
2022-09-15T00:13:33.459Z,9.309105
2022-09-15T00:14:33.582Z,9.309083
2022-09-15T00:15:33.431Z,9.309051
2022-09-15T00:16:33.551Z,9.309068
2022-09-15T00:17:33.506Z,9.309083
2022-09-15T00:18:33.509Z,9.309126
2022-09-15T00:19:34.569Z,9.309111
2022-09-15T00:20:33.508Z,9.309063
2022-09-15T00:21:34.348Z,9.309155
2022-09-15T00:22:33.452Z,9.309134
2022-09-15T00:23:33.434Z,9.309104
2022-09-15T00:24:34.439Z,9.309110
2022-09-15T00:25:34.549Z,9.309115
2022-09-15T00:26:33.427Z,9.309119
2022-09-15T00:27:34.307Z,9.309089
2022-09-15T00:28:33.464Z,9.309017
2022-09-15T00:29:33.480Z,9.308944
2022-09-15T00:30:33.375Z,9.309052
2022-09-15T00:31:33.308Z,9.309051
2022-09-15T00:32:33.297Z,9.309041
2022-09-15T00:33:33.313Z,9.308985
2022-09-15T00:34:33.310Z,9.309061
2022-09-15T00:35:33.290Z,9.309145
2022-09-15T00:36:33.325Z,9.309112
2022-09-15T00:37:33.287Z,9.309117
2022-09-15T00:38:33.328Z,9.309205
2022-09-15T00:39:33.335Z,9.309099
2022-09-15T00:40:33.381Z,9.309028
2022-09-15T00:41:33.386Z,9.309088
2022-09-15T00:42:33.297Z,9.309103
2022-09-15T00:43:33.295Z,9.309007
2022-09-15T00:44:33.311Z,9.309019
2022-09-15T00:45:33.296Z,9.308947
2022-09-15T00:46:34.315Z,9.308971
2022-09-15T00:47:33.291Z,9.309024
2022-09-15T00:48:34.305Z,9.309010
2022-09-15T00:49:33.250Z,9.309094
2022-09-15T00:50:33.281Z,9.309214
2022-09-15T00:51:33.271Z,9.309199
2022-09-15T00:52:33.288Z,9.309124
2022-09-15T00:53:33.198Z,9.309032
2022-09-15T00:54:33.136Z,9.309033
2022-09-15T00:55:33.192Z,9.308959
2022-09-15T00:56:33.216Z,9.308914
2022-09-15T00:57:33.273Z,9.308854
2022-09-15T00:58:33.208Z,9.309030
2022-09-15T00:59:33.213Z,9.309010
2022-09-15T01:00:33.265Z,9.308936
2022-09-15T01:01:33.335Z,9.308949
2022-09-15T01:02:33.317Z,9.308926
2022-09-15T01:03:33.208Z,9.308976
2022-09-15T01:04:33.171Z,9.309144
2022-09-15T01:05:33.325Z,9.309043
2022-09-15T01:06:33.147Z,9.309029
2022-09-15T01:07:33.034Z,9.308887
2022-09-15T01:08:33.076Z,9.308784
2022-09-15T01:09:33.161Z,9.308919
2022-09-15T01:10:33.045Z,9.309106
2022-09-15T01:11:33.046Z,9.309017
2022-09-15T01:12:33.007Z,9.309018
2022-09-15T01:13:33.166Z,9.308870
2022-09-15T01:14:33.083Z,9.309022
2022-09-15T01:15:33.149Z,9.308975
2022-09-15T01:16:33.147Z,9.309017
2022-09-15T01:17:33.069Z,9.309077
2022-09-15T01:18:33.032Z,9.308949
2022-09-15T01:19:33.088Z,9.308910
2022-09-15T01:20:33.042Z,9.308881
2022-09-15T01:21:33.037Z,9.309026
2022-09-15T01:22:33.015Z,9.308914
2022-09-15T01:23:33.026Z,9.309054
2022-09-15T01:24:33.079Z,9.308952
2022-09-15T01:25:33.017Z,9.308925
2022-09-15T01:26:32.986Z,9.308909
2022-09-15T01:27:42.541Z,9.308910
2022-09-15T01:28:34.907Z,9.308977
2022-09-15T01:29:32.958Z,9.309094
2022-09-15T01:30:32.948Z,9.309059
2022-09-15T01:31:32.921Z,9.308873
2022-09-15T01:32:33.869Z,9.308974
2022-09-15T01:33:32.864Z,9.308965
2022-09-15T01:34:32.959Z,9.308937
2022-09-15T01:35:33.444Z,9.308930
2022-09-15T01:36:32.964Z,9.308990
2022-09-15T01:37:32.921Z,9.309062
2022-09-15T01:38:32.974Z,9.309086
2022-09-15T01:39:32.943Z,9.309051
2022-09-15T01:40:32.877Z,9.309117
2022-09-15T01:41:32.924Z,9.309054
2022-09-15T01:42:32.891Z,9.309030
2022-09-15T01:43:32.877Z,9.309077
2022-09-15T01:44:32.904Z,9.309111
2022-09-15T01:45:32.943Z,9.309078
2022-09-15T01:46:32.880Z,9.309069
2022-09-15T01:47:32.813Z,9.309037
2022-09-15T01:48:32.781Z,9.308989
2022-09-15T01:49:32.868Z,9.309000
2022-09-15T01:50:32.890Z,9.309094
2022-09-15T01:51:32.832Z,9.309122
2022-09-15T01:52:32.878Z,9.309106
2022-09-15T01:53:32.718Z,9.308990
2022-09-15T01:54:32.804Z,9.308928
2022-09-15T01:55:32.815Z,9.308839
2022-09-15T01:56:32.777Z,9.308916
2022-09-15T01:57:32.921Z,9.308896
2022-09-15T01:58:32.845Z,9.308959
2022-09-15T01:59:32.820Z,9.309056
2022-09-15T02:00:32.787Z,9.309060
2022-09-15T02:01:32.879Z,9.308992
2022-09-15T02:02:32.927Z,9.308985
2022-09-15T02:03:33.018Z,9.308938
2022-09-15T02:04:32.649Z,9.308894
2022-09-15T02:05:32.668Z,9.308945
2022-09-15T02:06:32.615Z,9.308974
2022-09-15T02:07:32.827Z,9.308995
2022-09-15T02:08:32.675Z,9.308958
2022-09-15T02:09:32.657Z,9.309044
2022-09-15T02:10:33.609Z,9.309075
2022-09-15T02:11:32.612Z,9.309175
2022-09-15T02:12:32.679Z,9.309057
2022-09-15T02:13:32.658Z,9.309000
2022-09-15T02:14:32.793Z,9.309072
2022-09-15T02:15:32.661Z,9.308995
2022-09-15T02:16:32.682Z,9.309105
2022-09-15T02:17:32.668Z,9.309059
2022-09-15T02:18:32.662Z,9.309105
2022-09-15T02:19:32.657Z,9.309124
2022-09-15T02:20:32.644Z,9.309052
2022-09-15T02:21:32.623Z,9.309013
2022-09-15T02:22:32.595Z,9.309125
2022-09-15T02:23:32.546Z,9.309128
2022-09-15T02:24:32.493Z,9.309104
2022-09-15T02:25:32.635Z,9.309117
2022-09-15T02:26:32.507Z,9.309041
2022-09-15T02:27:32.487Z,9.309028
2022-09-15T02:28:32.486Z,9.309029
2022-09-15T02:29:32.486Z,9.309144
2022-09-15T02:30:32.491Z,9.309148
2022-09-15T02:31:33.679Z,9.309000
2022-09-15T02:32:32.545Z,9.308981
2022-09-15T02:33:32.551Z,9.308998
2022-09-15T02:34:32.513Z,9.309109
2022-09-15T02:35:32.576Z,9.309143
2022-09-15T02:36:32.530Z,9.309156
2022-09-15T02:37:32.513Z,9.309059
2022-09-15T02:38:32.489Z,9.309037
2022-09-15T02:39:32.532Z,9.309111
2022-09-15T02:40:32.594Z,9.309091
2022-09-15T02:41:32.509Z,9.309070
2022-09-15T02:42:32.386Z,9.309110
2022-09-15T02:43:32.375Z,9.309111
2022-09-15T02:44:32.368Z,9.309055
2022-09-15T02:45:32.450Z,9.309099
2022-09-15T02:46:32.440Z,9.309136
2022-09-15T02:47:32.408Z,9.309075
2022-09-15T02:48:32.375Z,9.309093
2022-09-15T02:49:32.353Z,9.309179
2022-09-15T02:50:32.331Z,9.309105
2022-09-15T02:51:32.412Z,9.309228
2022-09-15T02:52:32.457Z,9.309081
2022-09-15T02:53:32.364Z,9.309091
2022-09-15T02:54:32.397Z,9.309078
2022-09-15T02:55:32.384Z,9.309066
2022-09-15T02:56:32.409Z,9.309099
2022-09-15T02:57:32.414Z,9.309053
2022-09-15T02:58:32.383Z,9.309021
2022-09-15T02:59:32.377Z,9.309143
2022-09-15T03:00:32.412Z,9.309017
2022-09-15T03:01:32.343Z,9.308994
2022-09-15T03:02:32.352Z,9.309033
2022-09-15T03:03:32.716Z,9.309069
2022-09-15T03:04:32.243Z,9.309088
2022-09-15T03:05:32.232Z,9.309079
2022-09-15T03:06:32.373Z,9.309086
2022-09-15T03:07:32.238Z,9.309094
2022-09-15T03:08:32.360Z,9.309123
2022-09-15T03:09:32.860Z,9.309149
2022-09-15T03:10:32.329Z,9.309137
2022-09-15T03:11:32.360Z,9.309170
2022-09-15T03:12:32.272Z,9.309129
2022-09-15T03:13:32.355Z,9.309142
2022-09-15T03:14:32.276Z,9.309085
2022-09-15T03:15:32.239Z,9.309011
2022-09-15T03:16:32.332Z,9.309047
2022-09-15T03:17:32.278Z,9.309123
2022-09-15T03:18:32.200Z,9.309129
2022-09-15T03:19:32.167Z,9.309200
2022-09-15T03:20:32.209Z,9.309168
2022-09-15T03:21:32.141Z,9.309058
2022-09-15T03:22:32.159Z,9.309086
2022-09-15T03:23:32.098Z,9.309148
2022-09-15T03:24:32.101Z,9.309147
2022-09-15T03:25:32.141Z,9.309228
2022-09-15T03:26:32.140Z,9.309194
2022-09-15T03:27:32.189Z,9.309044
2022-09-15T03:28:32.153Z,9.309136
2022-09-15T03:29:32.187Z,9.309093
2022-09-15T03:30:32.238Z,9.309116
2022-09-15T03:31:32.234Z,9.309179
2022-09-15T03:32:32.151Z,9.309083
2022-09-15T03:33:32.282Z,9.309015
2022-09-15T03:34:32.174Z,9.309155
2022-09-15T03:35:32.106Z,9.309227
2022-09-15T03:36:32.135Z,9.309267
2022-09-15T03:37:32.077Z,9.309165
2022-09-15T03:38:32.124Z,9.309106
2022-09-15T03:39:31.994Z,9.309049
2022-09-15T03:40:32.123Z,9.309093
2022-09-15T03:41:32.112Z,9.309224
2022-09-15T03:42:32.080Z,9.309170
2022-09-15T03:43:32.023Z,9.309193
2022-09-15T03:44:32.069Z,9.309162
2022-09-15T03:45:32.065Z,9.309154
2022-09-15T03:46:32.060Z,9.309093
2022-09-15T03:47:32.142Z,9.309145
2022-09-15T03:48:32.003Z,9.309097
2022-09-15T03:49:31.994Z,9.309086
2022-09-15T03:50:32.741Z,9.309173
2022-09-15T03:51:31.994Z,9.309157
2022-09-15T03:52:32.022Z,9.309021
2022-09-15T03:53:32.008Z,9.308999
2022-09-15T03:54:32.049Z,9.309176
2022-09-15T03:55:32.114Z,9.309169
2022-09-15T03:56:31.932Z,9.309128
2022-09-15T03:57:31.866Z,9.309117
2022-09-15T03:58:31.939Z,9.309070
2022-09-15T03:59:31.875Z,9.309068
2022-09-15T04:00:31.899Z,9.309075
2022-09-15T04:01:31.932Z,9.309179
2022-09-15T04:02:31.812Z,9.309179
2022-09-15T04:03:32.013Z,9.309180
2022-09-15T04:04:31.840Z,9.309167
2022-09-15T04:05:31.876Z,9.309175
2022-09-15T04:06:31.892Z,9.309170
2022-09-15T04:07:31.896Z,9.309150
2022-09-15T04:08:31.848Z,9.309097
2022-09-15T04:09:31.888Z,9.309096
2022-09-15T04:10:31.923Z,9.309051
2022-09-15T04:11:31.879Z,9.309105
2022-09-15T04:12:31.838Z,9.309143
2022-09-15T04:13:31.846Z,9.309065
2022-09-15T04:14:31.852Z,9.309102
2022-09-15T04:15:31.866Z,9.309175
2022-09-15T04:16:31.907Z,9.309098
2022-09-15T04:17:31.721Z,9.309152
2022-09-15T04:18:31.714Z,9.309125
2022-09-15T04:19:31.706Z,9.309143
2022-09-15T04:20:31.836Z,9.309133
2022-09-15T04:21:31.799Z,9.309131
2022-09-15T04:22:31.786Z,9.309086
2022-09-15T04:23:31.793Z,9.309117
2022-09-15T04:24:31.861Z,9.309120
2022-09-15T04:25:31.746Z,9.309173
2022-09-15T04:26:31.737Z,9.309134
2022-09-15T04:27:31.715Z,9.309104
2022-09-15T04:28:31.727Z,9.309114
2022-09-15T04:29:31.699Z,9.309118
2022-09-15T04:30:31.715Z,9.309054
2022-09-15T04:31:31.812Z,9.309013
2022-09-15T04:32:31.695Z,9.309066
2022-09-15T04:33:31.714Z,9.309050
2022-09-15T04:34:31.625Z,9.309069
2022-09-15T04:35:31.612Z,9.309053
2022-09-15T04:36:31.749Z,9.309020
2022-09-15T04:37:31.770Z,9.309056
2022-09-15T04:38:31.742Z,9.308950
2022-09-15T04:39:31.672Z,9.308908
2022-09-15T04:40:31.783Z,9.309006
2022-09-15T04:41:31.630Z,9.309041
2022-09-15T04:42:31.716Z,9.309133
2022-09-15T04:43:31.657Z,9.309055
2022-09-15T04:44:31.634Z,9.308982
2022-09-15T04:45:31.624Z,9.309003
2022-09-15T04:46:31.616Z,9.308933
2022-09-15T04:47:31.607Z,9.308994
2022-09-15T04:48:31.589Z,9.309019
2022-09-15T04:49:31.585Z,9.309031
2022-09-15T04:50:31.486Z,9.309011
2022-09-15T04:51:31.476Z,9.308979
2022-09-15T04:52:31.452Z,9.308959
2022-09-15T04:53:31.568Z,9.308994
2022-09-15T04:54:31.586Z,9.309011
2022-09-15T04:55:31.534Z,9.308956
2022-09-15T04:58:40.289Z,9.308949
2022-09-15T04:59:40.236Z,9.308944
2022-09-15T05:00:40.279Z,9.308928
2022-09-15T05:01:40.306Z,9.308994
2022-09-15T05:02:40.294Z,9.308964
2022-09-15T05:03:40.499Z,9.308913
2022-09-15T05:04:40.221Z,9.308930
2022-09-15T05:05:40.230Z,9.308952
2022-09-15T05:06:40.223Z,9.308963
2022-09-15T05:07:40.290Z,9.308931
2022-09-15T05:08:40.319Z,9.308929
2022-09-15T05:09:40.330Z,9.308918
2022-09-15T05:10:40.257Z,9.309009
2022-09-15T05:11:40.326Z,9.308952
2022-09-15T05:12:40.269Z,9.308944
2022-09-15T05:13:40.253Z,9.309043
2022-09-15T05:14:40.271Z,9.309028
2022-09-15T05:15:40.251Z,9.308976
2022-09-15T05:16:40.344Z,9.308981
2022-09-15T05:17:40.127Z,9.309011
2022-09-15T05:18:40.125Z,9.308965
2022-09-15T05:19:40.129Z,9.308919
2022-09-15T05:20:40.159Z,9.308893
2022-09-15T05:21:40.133Z,9.308908
2022-09-15T05:22:41.945Z,9.308891
2022-09-15T05:23:41.516Z,9.308905
2022-09-15T05:24:40.160Z,9.308958
2022-09-15T05:25:40.203Z,9.309028
2022-09-15T05:26:40.155Z,9.309018
2022-09-15T05:27:40.159Z,9.308985
2022-09-15T05:28:40.112Z,9.308968
2022-09-15T05:29:40.186Z,9.308962
2022-09-15T05:30:44.095Z,9.308915
2022-09-15T05:31:42.270Z,9.308909
2022-09-15T05:32:40.106Z,9.308963
2022-09-15T05:33:40.139Z,9.309051
2022-09-15T05:34:40.075Z,9.308929
2022-09-15T05:35:40.018Z,9.308940
2022-09-15T05:36:40.014Z,9.308898
2022-09-15T05:37:40.014Z,9.308967
2022-09-15T05:38:40.009Z,9.309011
2022-09-15T05:39:39.999Z,9.309003
2022-09-15T05:40:40.132Z,9.309052
2022-09-15T05:41:39.978Z,9.309138
2022-09-15T05:42:39.996Z,9.309114
2022-09-15T05:43:39.963Z,9.309101
2022-09-15T05:44:40.046Z,9.309059
2022-09-15T05:45:40.004Z,9.309103
2022-09-15T05:46:40.051Z,9.309059
2022-09-15T05:47:40.038Z,9.309054
2022-09-15T05:48:40.054Z,9.309008
2022-09-15T05:49:40.738Z,9.309031
2022-09-15T05:50:40.761Z,9.309053
2022-09-15T05:51:39.965Z,9.309116
2022-09-15T05:52:40.016Z,9.309058
2022-09-15T05:53:40.013Z,9.309130
2022-09-15T05:54:40.053Z,9.309088
2022-09-15T05:55:40.045Z,9.309091
2022-09-15T05:56:39.941Z,9.309126
2022-09-15T05:57:39.948Z,9.309117
2022-09-15T05:58:39.866Z,9.309087
2022-09-15T05:59:39.819Z,9.309086
2022-09-15T06:00:39.896Z,9.309162
2022-09-15T06:01:39.845Z,9.309109
2022-09-15T06:02:39.874Z,9.309100
2022-09-15T06:03:39.843Z,9.309167
2022-09-15T06:04:40.067Z,9.309099
2022-09-15T06:05:39.824Z,9.309096
2022-09-15T06:06:39.861Z,9.309085
2022-09-15T06:07:39.843Z,9.309041
2022-09-15T06:08:43.772Z,9.308990
2022-09-15T06:09:40.844Z,9.309102
2022-09-15T06:10:39.844Z,9.309099
2022-09-15T06:11:39.844Z,9.309056
2022-09-15T06:12:39.813Z,9.309087
2022-09-15T06:13:39.891Z,9.309079
2022-09-15T06:14:39.846Z,9.309114
2022-09-15T06:15:39.858Z,9.309025
2022-09-15T06:16:39.805Z,9.309000
2022-09-15T06:17:39.812Z,9.309036
2022-09-15T06:18:39.807Z,9.309008
2022-09-15T06:19:39.726Z,9.309045
2022-09-15T06:20:39.697Z,9.308962
2022-09-15T06:21:39.666Z,9.308857
2022-09-15T06:22:39.678Z,9.309113
2022-09-15T06:23:39.675Z,9.309198
2022-09-15T06:24:39.748Z,9.308973
2022-09-15T06:25:39.705Z,9.308990
2022-09-15T06:26:40.012Z,9.309064
2022-09-15T06:27:39.646Z,9.309012
2022-09-15T06:28:39.737Z,9.308954
2022-09-15T06:29:39.709Z,9.308976
2022-09-15T06:30:39.846Z,9.308971
2022-09-15T06:31:39.739Z,9.309009
2022-09-15T06:32:39.799Z,9.309018
2022-09-15T06:33:39.730Z,9.309032
2022-09-15T06:34:39.703Z,9.309074
2022-09-15T06:35:39.692Z,9.309053
2022-09-15T06:36:39.763Z,9.309077
2022-09-15T06:37:39.658Z,9.309103
2022-09-15T06:38:39.725Z,9.309002
2022-09-15T06:39:39.562Z,9.309081
2022-09-15T06:40:39.539Z,9.309114
2022-09-15T06:41:58.767Z,9.309102
2022-09-15T06:42:41.623Z,9.309114
2022-09-15T06:43:39.521Z,9.309042
2022-09-15T06:44:39.591Z,9.309080
2022-09-15T06:45:39.634Z,9.308997
2022-09-15T06:46:39.566Z,9.308979
2022-09-15T06:47:39.607Z,9.308951
2022-09-15T06:48:39.567Z,9.309022
2022-09-15T06:49:39.520Z,9.309105
2022-09-15T06:50:39.569Z,9.309028
2022-09-15T06:51:39.546Z,9.309116
2022-09-15T06:52:39.596Z,9.309067
2022-09-15T06:53:39.488Z,9.309120
2022-09-15T06:54:39.409Z,9.309193
2022-09-15T06:55:39.388Z,9.309018
2022-09-15T06:56:39.551Z,9.309082
2022-09-15T06:57:39.542Z,9.309130
2022-09-15T06:58:39.546Z,9.309049
2022-09-15T06:59:39.564Z,9.308937
2022-09-15T07:00:39.478Z,9.308863
2022-09-15T07:01:40.531Z,9.308928
2022-09-15T07:02:39.501Z,9.308955
2022-09-15T07:03:39.523Z,9.308844
2022-09-15T07:04:39.457Z,9.309014
2022-09-15T07:05:39.454Z,9.308943
2022-09-15T07:06:39.609Z,9.309080
2022-09-15T07:07:39.439Z,9.309083
2022-09-15T07:08:39.412Z,9.309079
2022-09-15T07:09:41.297Z,9.308991
2022-09-15T07:10:40.418Z,9.309059
2022-09-15T07:11:39.405Z,9.309024
2022-09-15T07:12:39.449Z,9.308959
2022-09-15T07:13:39.287Z,9.308938
2022-09-15T07:14:39.328Z,9.309070
2022-09-15T07:15:39.363Z,9.309114
2022-09-15T07:16:39.404Z,9.309074
2022-09-15T07:17:39.287Z,9.309031
2022-09-15T07:18:43.021Z,9.308900
2022-09-15T07:19:40.298Z,9.308917
2022-09-15T07:20:39.378Z,9.309062
2022-09-15T07:21:39.305Z,9.309093
2022-09-15T07:22:39.307Z,9.309060
2022-09-15T07:23:39.279Z,9.309098
2022-09-15T07:24:39.327Z,9.309133
2022-09-15T07:25:39.366Z,9.309000
2022-09-15T07:26:39.307Z,9.309011
2022-09-15T07:27:39.265Z,9.309127
2022-09-15T07:28:39.288Z,9.309104
2022-09-15T07:29:39.248Z,9.309027
2022-09-15T07:30:39.302Z,9.309309
2022-09-15T07:31:39.304Z,9.309212
2022-09-15T07:32:39.204Z,9.308957
2022-09-15T07:33:39.220Z,9.308977
2022-09-15T07:34:39.168Z,9.308908
2022-09-15T07:35:39.140Z,9.308833
2022-09-15T07:36:39.235Z,9.308952
2022-09-15T07:37:39.120Z,9.308968
2022-09-15T07:38:39.131Z,9.308949
2022-09-15T07:39:39.211Z,9.308958
2022-09-15T07:40:39.218Z,9.308948
2022-09-15T07:41:39.274Z,9.308979
2022-09-15T07:42:39.138Z,9.309052
2022-09-15T07:43:39.151Z,9.309078
2022-09-15T07:44:39.107Z,9.309017
2022-09-15T07:45:39.168Z,9.308865
2022-09-15T07:46:39.134Z,9.308949
2022-09-15T07:47:39.146Z,9.309026
2022-09-15T07:48:39.033Z,9.309107
2022-09-15T07:49:39.017Z,9.309029
2022-09-15T07:50:39.115Z,9.309067
2022-09-15T07:51:39.103Z,9.309079
2022-09-15T07:52:39.165Z,9.309093
2022-09-15T07:53:38.948Z,9.309069
2022-09-15T07:54:39.053Z,9.309087
2022-09-15T07:55:39.178Z,9.309091
2022-09-15T07:56:39.043Z,9.309105
2022-09-15T07:57:39.058Z,9.309063
2022-09-15T07:58:39.092Z,9.309059
2022-09-15T07:59:41.250Z,9.309091
2022-09-15T08:00:40.094Z,9.309105
2022-09-15T08:01:39.068Z,9.309141
2022-09-15T08:02:39.069Z,9.309167
2022-09-15T08:03:39.043Z,9.309159
2022-09-15T08:04:39.000Z,9.309149
2022-09-15T08:05:43.542Z,9.309140
2022-09-15T08:06:40.957Z,9.309157
2022-09-15T08:07:38.991Z,9.309128
2022-09-15T08:08:38.973Z,9.309145
2022-09-15T08:09:38.920Z,9.309136
2022-09-15T08:10:38.833Z,9.309131
2022-09-15T08:11:38.894Z,9.309122
2022-09-15T08:12:38.856Z,9.309126
2022-09-15T08:13:38.862Z,9.309072
2022-09-15T08:14:38.900Z,9.309057
2022-09-15T08:15:39.790Z,9.309111
2022-09-15T08:16:38.881Z,9.309078
2022-09-15T08:17:38.904Z,9.309048
2022-09-15T08:18:38.899Z,9.309127
2022-09-15T08:19:38.907Z,9.309155
2022-09-15T08:20:38.879Z,9.309153
2022-09-15T08:21:38.915Z,9.309058
2022-09-15T08:22:38.879Z,9.309058
2022-09-15T08:23:38.907Z,9.309072
2022-09-15T08:24:38.828Z,9.309028
2022-09-15T08:25:39.026Z,9.309033
2022-09-15T08:26:39.910Z,9.309125
2022-09-15T08:27:38.818Z,9.309076
2022-09-15T08:28:38.777Z,9.309107
2022-09-15T08:29:38.779Z,9.309027
2022-09-15T08:30:38.774Z,9.309091
2022-09-15T08:31:38.779Z,9.309125
2022-09-15T08:32:38.691Z,9.309119
2022-09-15T08:33:43.174Z,9.309112
2022-09-15T08:34:40.789Z,9.309119
2022-09-15T08:35:38.754Z,9.309060
2022-09-15T08:36:38.805Z,9.309191
2022-09-15T08:37:38.742Z,9.309128
2022-09-15T08:38:38.753Z,9.309018
2022-09-15T08:39:38.753Z,9.309011
2022-09-15T08:40:38.754Z,9.309109
2022-09-15T08:41:39.347Z,9.309038
2022-09-15T08:42:42.843Z,9.308983
2022-09-15T08:43:40.820Z,9.309100
2022-09-15T08:44:38.770Z,9.309092
2022-09-15T08:45:38.728Z,9.309003
2022-09-15T08:46:38.848Z,9.309002
2022-09-15T08:47:38.715Z,9.308931
2022-09-15T08:48:38.621Z,9.308816
2022-09-15T08:49:50.999Z,9.309081
2022-09-15T08:50:40.619Z,9.309098
2022-09-15T08:51:38.601Z,9.309088
2022-09-15T08:52:38.702Z,9.309159
2022-09-15T08:53:38.629Z,9.309160
2022-09-15T08:54:39.102Z,9.309209
2022-09-15T08:55:38.675Z,9.309085
2022-09-15T08:56:38.633Z,9.308988
2022-09-15T08:57:38.662Z,9.308887
2022-09-15T08:58:38.666Z,9.308897
2022-09-15T08:59:38.662Z,9.309060
2022-09-15T09:00:38.584Z,9.309072
2022-09-15T09:01:38.659Z,9.309073
2022-09-15T09:02:38.641Z,9.309001
2022-09-15T09:03:38.712Z,9.309041
2022-09-15T09:04:38.574Z,9.309055
2022-09-15T09:05:38.693Z,9.308853
2022-09-15T09:06:38.596Z,9.308792
2022-09-15T10:36:29.781Z,9.308971
2022-09-15T10:37:29.716Z,9.308910
2022-09-15T10:38:29.655Z,9.308940
2022-09-15T10:39:29.660Z,9.308903
2022-09-15T10:40:29.768Z,9.308977
2022-09-15T10:41:29.626Z,9.309007
2022-09-15T10:42:29.640Z,9.308949
2022-09-15T10:43:29.623Z,9.308948
2022-09-15T10:44:29.588Z,9.309047
2022-09-15T10:45:29.681Z,9.309075
2022-09-15T10:46:29.723Z,9.309067
2022-09-15T10:47:29.657Z,9.309019
2022-09-15T10:48:29.637Z,9.309083
2022-09-15T10:49:29.630Z,9.309061
2022-09-15T10:50:29.731Z,9.309060
2022-09-15T10:51:30.187Z,9.309042
2022-09-15T10:52:29.641Z,9.309102
2022-09-15T10:53:29.595Z,9.309046
2022-09-15T10:54:29.601Z,9.309011
2022-09-15T10:55:51.080Z,9.308960
2022-09-15T10:56:31.586Z,9.308945
2022-09-15T10:57:29.666Z,9.308914
2022-09-15T10:58:29.572Z,9.308913
2022-09-15T10:59:29.613Z,9.308951
2022-09-15T11:00:29.575Z,9.309050
2022-09-15T11:01:29.494Z,9.309065
2022-09-15T11:02:29.572Z,9.309007
2022-09-15T11:03:29.538Z,9.309129
2022-09-15T11:04:29.529Z,9.309168
2022-09-15T11:05:29.524Z,9.309074
2022-09-15T11:06:29.525Z,9.308988
2022-09-15T11:07:29.539Z,9.308975
2022-09-15T11:08:30.519Z,9.309093
2022-09-15T11:09:29.483Z,9.309374
2022-09-15T11:10:29.473Z,9.309000
2022-09-15T11:11:29.494Z,9.308888
2022-09-15T11:12:29.668Z,9.308707
2022-09-15T11:13:29.522Z,9.308808
2022-09-15T11:14:29.468Z,9.308972
2022-09-15T11:15:29.480Z,9.308865
2022-09-15T11:16:29.461Z,9.308928
2022-09-15T11:17:29.344Z,9.309294
2022-09-15T11:18:29.418Z,9.309261
2022-09-15T11:19:29.337Z,9.309001
2022-09-15T11:20:29.345Z,9.309001
2022-09-15T11:21:29.450Z,9.308812
2022-09-15T11:22:29.458Z,9.308961
2022-09-15T11:23:29.422Z,9.309063
2022-09-15T11:24:29.532Z,9.308641
2022-09-15T11:25:29.406Z,9.308820
2022-09-15T11:26:29.442Z,9.308973
2022-09-15T11:27:29.465Z,9.309136
2022-09-15T11:28:29.466Z,9.308983
2022-09-15T11:29:29.486Z,9.309022
2022-09-15T11:30:29.372Z,9.309023
2022-09-15T11:31:29.402Z,9.308856
2022-09-15T11:32:29.396Z,9.309020
2022-09-15T11:33:29.307Z,9.309096
2022-09-15T11:34:29.455Z,9.309145
2022-09-15T11:35:29.358Z,9.309083
2022-09-15T11:36:29.296Z,9.309077
2022-09-15T11:37:29.318Z,9.309032
2022-09-15T11:38:29.338Z,9.308979
2022-09-15T11:39:29.202Z,9.308982
2022-09-15T11:40:29.355Z,9.309074
2022-09-15T11:41:29.224Z,9.309110
2022-09-15T11:42:29.196Z,9.309095
2022-09-15T11:43:29.234Z,9.309133
2022-09-15T11:44:29.186Z,9.309093
2022-09-15T11:45:29.285Z,9.309174
2022-09-15T11:46:29.226Z,9.309034
2022-09-15T11:47:29.203Z,9.309007
2022-09-15T11:48:29.253Z,9.308997
2022-09-15T11:49:29.470Z,9.309001
2022-09-15T11:50:29.223Z,9.309097
2022-09-15T11:51:32.306Z,9.309099
2022-09-15T11:52:29.240Z,9.308965
2022-09-15T11:53:29.147Z,9.308824
2022-09-15T11:54:31.512Z,9.308979
2022-09-15T11:55:30.142Z,9.309041
2022-09-15T11:56:29.273Z,9.309041
2022-09-15T11:57:29.177Z,9.309057
2022-09-15T11:58:29.181Z,9.308981
2022-09-15T11:59:29.119Z,9.309066
2022-09-15T12:00:29.027Z,9.309011
2022-09-15T12:01:29.093Z,9.309008
2022-09-15T12:02:29.221Z,9.308922
2022-09-15T12:03:29.177Z,9.308937
2022-09-15T12:04:29.084Z,9.308996
2022-09-15T12:05:29.016Z,9.309068
2022-09-15T12:06:29.021Z,9.309140
2022-09-15T12:07:29.060Z,9.309155
2022-09-15T12:08:28.995Z,9.309118
2022-09-15T12:09:29.111Z,9.309091
2022-09-15T12:10:29.104Z,9.309095
2022-09-15T12:11:29.051Z,9.309124
2022-09-15T12:12:30.871Z,9.309132
2022-09-15T12:13:29.060Z,9.309078
2022-09-15T12:14:29.038Z,9.309122
2022-09-15T12:15:29.657Z,9.309176
2022-09-15T12:16:29.081Z,9.309155
2022-09-15T12:17:29.032Z,9.309168
2022-09-15T12:18:43.877Z,9.309114
2022-09-15T12:19:30.939Z,9.309100
2022-09-15T12:20:29.002Z,9.309071
2022-09-15T12:21:29.001Z,9.309112
2022-09-15T12:22:28.979Z,9.309226
2022-09-15T12:23:29.331Z,9.309140
2022-09-15T12:24:28.875Z,9.309192
2022-09-15T12:25:28.931Z,9.309163
2022-09-15T12:26:28.887Z,9.309159
2022-09-15T12:27:28.855Z,9.309149
2022-09-15T12:28:28.930Z,9.309169
2022-09-15T12:29:29.098Z,9.309218
2022-09-15T12:30:28.934Z,9.309197
2022-09-15T12:31:28.964Z,9.309154
2022-09-15T12:32:28.916Z,9.309097
2022-09-15T12:33:28.913Z,9.309125
2022-09-15T12:34:28.957Z,9.309112
2022-09-15T12:35:28.924Z,9.309198
2022-09-15T12:36:28.896Z,9.309124
2022-09-15T12:37:28.874Z,9.309123
2022-09-15T12:38:28.850Z,9.309139
2022-09-15T12:39:28.987Z,9.309087
2022-09-15T12:40:29.084Z,9.309111
2022-09-15T12:41:28.740Z,9.309173
2022-09-15T12:42:28.740Z,9.309151
2022-09-15T12:43:28.761Z,9.309095
2022-09-15T12:44:28.772Z,9.309145
2022-09-15T12:45:28.754Z,9.309162
2022-09-15T12:46:28.870Z,9.309145
2022-09-15T12:47:28.813Z,9.309106
2022-09-15T12:48:28.740Z,9.309196
2022-09-15T12:49:28.731Z,9.309174
2022-09-15T12:50:28.898Z,9.309090
2022-09-15T12:51:28.774Z,9.309049
2022-09-15T12:52:29.000Z,9.309077
2022-09-15T12:53:28.786Z,9.309032
2022-09-15T12:54:28.781Z,9.309055
2022-09-15T12:55:28.727Z,9.309001
2022-09-15T12:56:28.783Z,9.309131
2022-09-15T12:57:28.740Z,9.309163
2022-09-15T12:58:28.760Z,9.309073
2022-09-15T12:59:28.783Z,9.309089
2022-09-15T13:00:28.772Z,9.309137
2022-09-15T13:01:28.935Z,9.309188
2022-09-15T13:02:28.915Z,9.309184
2022-09-15T13:03:28.669Z,9.309114
2022-09-15T13:04:28.654Z,9.309155
2022-09-15T13:05:28.734Z,9.309100
2022-09-15T13:06:28.670Z,9.309092
2022-09-15T13:07:28.740Z,9.309131
2022-09-15T13:08:28.628Z,9.309064
2022-09-15T13:09:28.672Z,9.309136
2022-09-15T13:10:28.632Z,9.309089
2022-09-15T13:11:28.675Z,9.309077
2022-09-15T13:12:28.653Z,9.309103
2022-09-15T13:13:31.140Z,9.309208
2022-09-15T13:14:28.573Z,9.309065
2022-09-15T13:15:28.648Z,9.309174